createdAt,value
2022-07-30T00:00:51.804Z,7.32
2022-07-30T00:03:18.997Z,6.80
2022-07-30T00:05:46.250Z,5.97
2022-07-30T00:08:13.821Z,5.93
2022-07-30T00:10:41.334Z,5.72
2022-07-30T00:13:08.759Z,5.15
2022-07-30T00:15:41.459Z,5.03
2022-07-30T00:18:08.629Z,4.95
2022-07-30T00:20:35.778Z,4.65
2022-07-30T00:23:06.134Z,4.97
2022-07-30T00:25:33.928Z,4.00
2022-07-30T00:28:01.164Z,4.00
2022-07-30T00:30:28.511Z,3.63
2022-07-30T00:32:55.892Z,3.03
2022-07-30T00:35:23.105Z,2.80
2022-07-30T00:37:50.261Z,3.00
2022-07-30T00:40:17.597Z,2.80
2022-07-30T00:42:47.542Z,2.00
2022-07-30T00:45:17.270Z,1.92
2022-07-30T00:47:44.675Z,2.00
2022-07-30T00:50:14.123Z,1.60
2022-07-30T00:52:42.801Z,1.40
2022-07-30T00:55:14.427Z,1.58
2022-07-30T00:57:42.710Z,1.20
2022-07-30T01:00:14.779Z,1.40
2022-07-30T01:02:41.957Z,1.55
2022-07-30T01:05:10.161Z,1.40
2022-07-30T01:07:37.631Z,1.48
2022-07-30T01:10:07.581Z,1.38
2022-07-30T01:12:35.097Z,1.40
2022-07-30T01:15:05.716Z,1.52
2022-07-30T01:17:34.104Z,1.25
2022-07-30T01:20:12.102Z,1.60
2022-07-30T01:23:07.228Z,1.42
2022-07-30T01:25:56.431Z,1.70
2022-07-30T01:28:33.588Z,1.67
2022-07-30T01:31:02.260Z,1.65
2022-07-30T01:33:31.173Z,1.70
2022-07-30T01:35:59.961Z,1.90
2022-07-30T01:38:31.187Z,1.63
2022-07-30T01:41:03.865Z,1.85
2022-07-30T01:43:33.056Z,1.77
2022-07-30T01:46:01.851Z,1.77
2022-07-30T01:48:31.788Z,1.50
2022-07-30T01:51:05.288Z,1.60
2022-07-30T01:53:36.865Z,1.80
2022-07-30T01:56:05.305Z,1.35
2022-07-30T01:58:40.174Z,1.70
2022-07-30T02:01:07.637Z,1.83
2022-07-30T02:03:35.476Z,1.23
2022-07-30T02:06:13.653Z,1.20
2022-07-30T02:08:53.343Z,1.20
2022-07-30T02:11:39.195Z,1.40
2022-07-30T02:14:17.555Z,1.38
2022-07-30T02:16:50.241Z,1.00
2022-07-30T02:19:20.065Z,1.52
2022-07-30T02:21:56.616Z,1.23
2022-07-30T02:24:29.522Z,1.10
2022-07-30T02:27:08.662Z,1.20
2022-07-30T02:29:38.465Z,1.27
2022-07-30T02:32:10.987Z,1.10
2022-07-30T02:34:41.571Z,1.20
2022-07-30T02:37:12.483Z,1.30
2022-07-30T02:39:41.731Z,1.10
2022-07-30T02:42:10.706Z,1.10
2022-07-30T02:44:42.468Z,1.00
2022-07-30T02:47:11.395Z,1.27
2022-07-30T02:49:42.030Z,1.35
2022-07-30T02:52:13.595Z,1.35
2022-07-30T02:54:43.212Z,1.30
2022-07-30T02:57:11.597Z,1.42
2022-07-30T02:59:42.206Z,1.60
2022-07-30T03:02:11.917Z,1.65
2022-07-30T03:04:42.936Z,1.70
2022-07-30T03:07:12.057Z,1.98
2022-07-30T03:09:51.071Z,1.60
2022-07-30T03:12:21.689Z,2.00
2022-07-30T03:14:49.243Z,1.80
2022-07-30T03:17:17.947Z,1.55
2022-07-30T03:19:48.025Z,2.38
2022-07-30T03:22:17.612Z,2.10
2022-07-30T03:24:46.878Z,2.30
2022-07-30T03:27:16.316Z,2.20
2022-07-30T03:29:45.954Z,2.40
2022-07-30T03:32:14.007Z,2.67
2022-07-30T03:34:43.728Z,3.20
2022-07-30T03:37:12.372Z,2.85
2022-07-30T03:39:40.682Z,2.63
2022-07-30T03:42:08.852Z,2.53
2022-07-30T03:44:37.260Z,2.38
2022-07-30T03:47:07.338Z,2.60
2022-07-30T03:49:34.589Z,2.55
2022-07-30T03:52:04.353Z,2.88
2022-07-30T03:54:33.938Z,2.47
2022-07-30T03:57:03.846Z,2.72
2022-07-30T03:59:31.942Z,2.90
2022-07-30T04:02:07.239Z,3.00
2022-07-30T04:04:34.840Z,2.50
2022-07-30T04:07:02.261Z,2.33
2022-07-30T04:09:30.047Z,2.90
2022-07-30T04:11:57.194Z,2.83
2022-07-30T04:14:24.295Z,2.85
2022-07-30T04:16:59.483Z,3.22
2022-07-30T04:20:07.457Z,2.60
2022-07-30T04:22:37.841Z,2.67
2022-07-30T04:25:07.103Z,2.85
2022-07-30T04:27:35.863Z,2.65
2022-07-30T04:30:04.496Z,3.78
2022-07-30T04:32:33.396Z,2.92
2022-07-30T04:35:00.543Z,3.30
2022-07-30T04:37:27.876Z,3.10
2022-07-30T04:39:57.730Z,3.45
2022-07-30T04:42:29.105Z,3.53
2022-07-30T04:44:57.898Z,3.63
2022-07-30T04:47:25.624Z,3.72
2022-07-30T04:49:53.915Z,3.47
2022-07-30T04:52:22.513Z,3.78
2022-07-30T04:54:55.933Z,4.10
2022-07-30T04:57:24.674Z,3.70
2022-07-30T04:59:51.987Z,3.88
2022-07-30T05:02:22.530Z,4.30
2022-07-30T05:04:50.428Z,4.43
2022-07-30T05:07:22.568Z,4.38
2022-07-30T05:09:50.336Z,4.32
2022-07-30T05:12:17.449Z,4.30
2022-07-30T05:14:48.234Z,4.13
2022-07-30T05:17:15.524Z,3.92
2022-07-30T05:19:42.614Z,4.55
2022-07-30T05:22:09.829Z,4.10
2022-07-30T05:24:36.886Z,4.38
2022-07-30T05:27:04.247Z,4.30
2022-07-30T05:29:31.462Z,3.92
2022-07-30T05:32:02.675Z,3.75
2022-07-30T05:34:30.670Z,3.88
2022-07-30T05:36:58.205Z,3.55
2022-07-30T05:39:25.592Z,4.10
2022-07-30T05:41:53.581Z,4.45
2022-07-30T05:44:24.031Z,3.63
2022-07-30T05:46:52.255Z,3.40
2022-07-30T05:49:19.559Z,3.50
2022-07-30T05:51:46.849Z,3.67
2022-07-30T05:54:13.942Z,3.22
2022-07-30T05:56:41.345Z,3.20
2022-07-30T05:59:08.504Z,3.05
2022-07-30T06:01:35.659Z,3.60
2022-07-30T06:04:02.865Z,3.03
2022-07-30T06:06:29.963Z,3.30
2022-07-30T06:08:57.022Z,3.85
2022-07-30T06:11:24.103Z,3.60
2022-07-30T06:13:51.625Z,3.10
2022-07-30T06:16:18.760Z,2.97
2022-07-30T06:18:45.844Z,3.53
2022-07-30T06:21:12.936Z,3.13
2022-07-30T06:23:40.091Z,2.75
2022-07-30T06:26:07.319Z,3.17
2022-07-30T06:28:38.741Z,3.28
2022-07-30T06:31:07.558Z,3.30
2022-07-30T06:33:35.311Z,2.55
2022-07-30T06:36:03.016Z,2.95
2022-07-30T06:38:30.352Z,2.70
2022-07-30T06:41:02.514Z,3.05
2022-07-30T06:43:31.459Z,2.83
2022-07-30T06:45:58.721Z,2.58
2022-07-30T06:48:25.799Z,2.88
2022-07-30T06:50:52.987Z,3.20
2022-07-30T06:53:20.113Z,3.47
2022-07-30T06:55:47.243Z,2.83
2022-07-30T06:58:14.327Z,3.20
2022-07-30T07:00:43.064Z,2.90
2022-07-30T07:03:11.918Z,2.78
2022-07-30T07:05:39.635Z,2.78
2022-07-30T07:08:06.848Z,2.75
2022-07-30T07:10:34.218Z,3.15
2022-07-30T07:13:01.365Z,3.22
2022-07-30T07:15:36.771Z,3.25
2022-07-30T07:18:05.835Z,3.20
2022-07-30T07:20:34.323Z,3.38
2022-07-30T07:23:05.398Z,2.63
2022-07-30T07:25:36.690Z,2.83
2022-07-30T07:28:12.325Z,2.97
2022-07-30T07:30:42.106Z,3.10
2022-07-30T07:33:10.705Z,2.65
2022-07-30T07:35:48.481Z,3.00
2022-07-30T07:38:18.684Z,2.97
2022-07-30T07:40:47.428Z,3.15
2022-07-30T07:43:15.388Z,2.80
2022-07-30T07:45:43.653Z,3.05
2022-07-30T07:48:10.843Z,3.25
2022-07-30T07:50:38.800Z,3.13
2022-07-30T07:53:06.465Z,3.17
2022-07-30T07:55:33.715Z,3.30
2022-07-30T07:58:01.535Z,3.15
2022-07-30T08:00:28.997Z,2.83
2022-07-30T08:02:56.472Z,3.28
2022-07-30T08:05:23.864Z,2.88
2022-07-30T08:07:52.207Z,3.30
2022-07-30T08:10:19.453Z,3.13
2022-07-30T08:12:46.555Z,3.72
2022-07-30T08:15:14.928Z,3.40
2022-07-30T08:17:45.055Z,3.13
2022-07-30T08:20:14.628Z,3.30
2022-07-30T08:22:42.204Z,3.33
2022-07-30T08:25:09.829Z,4.03
2022-07-30T08:27:37.009Z,3.75
2022-07-30T08:30:06.620Z,3.55
2022-07-30T08:32:34.342Z,3.90
2022-07-30T08:35:01.715Z,3.35
2022-07-30T08:37:29.200Z,3.90
2022-07-30T08:39:56.290Z,4.03
2022-07-30T08:42:24.161Z,4.32
2022-07-30T08:44:54.800Z,3.75
2022-07-30T08:47:31.146Z,4.55
2022-07-30T08:50:06.315Z,3.85
2022-07-30T08:52:36.981Z,4.65
2022-07-30T08:55:08.204Z,4.07
2022-07-30T08:57:38.433Z,4.25
2022-07-30T09:00:07.549Z,4.00
2022-07-30T09:02:35.501Z,4.00
2022-07-30T09:05:02.889Z,4.03
2022-07-30T09:07:32.034Z,4.65
2022-07-30T09:10:00.731Z,4.10
2022-07-30T09:12:40.753Z,4.20
2022-07-30T09:15:20.851Z,3.85
2022-07-30T09:18:00.735Z,3.88
2022-07-30T09:20:34.619Z,4.20
2022-07-30T09:23:05.289Z,3.97
2022-07-30T09:25:46.036Z,3.92
2022-07-30T09:28:17.099Z,4.32
2022-07-30T09:30:53.973Z,4.32
2022-07-30T09:33:40.544Z,4.93
2022-07-30T09:36:16.535Z,4.75
2022-07-30T09:38:54.245Z,4.80
2022-07-30T09:41:39.278Z,4.32
2022-07-30T09:44:07.394Z,4.85
2022-07-30T09:46:47.701Z,4.40
2022-07-30T09:49:26.883Z,4.40
2022-07-30T09:51:57.482Z,4.90
2022-07-30T09:54:51.432Z,4.90
2022-07-30T09:57:25.850Z,5.38
2022-07-30T09:59:57.528Z,5.80
2022-07-30T10:02:33.214Z,6.32
2022-07-30T10:05:16.489Z,5.93
2022-07-30T10:08:04.486Z,7.30
2022-07-30T10:10:36.711Z,7.50
2022-07-30T10:13:17.954Z,6.93
2022-07-30T10:15:50.315Z,8.60
2022-07-30T10:18:18.227Z,8.57
2022-07-30T10:20:45.693Z,6.25
2022-07-30T10:23:15.612Z,6.82
2022-07-30T10:25:48.895Z,6.45
2022-07-30T10:28:26.247Z,7.43
2022-07-30T10:30:56.071Z,6.57
2022-07-30T10:33:37.495Z,6.35
2022-07-30T10:36:10.694Z,6.47
2022-07-30T10:38:41.650Z,7.60
2022-07-30T10:41:22.295Z,7.20
2022-07-30T10:44:44.343Z,7.85
2022-07-30T10:47:16.445Z,8.05
2022-07-30T10:50:26.851Z,8.23
2022-07-30T10:52:56.797Z,8.80
2022-07-30T10:55:37.628Z,8.40
2022-07-30T10:58:15.721Z,7.38
2022-07-30T11:00:58.872Z,6.43
2022-07-30T11:03:41.491Z,6.72
2022-07-30T11:06:24.249Z,6.88
2022-07-30T11:08:52.281Z,7.55
2022-07-30T11:11:37.027Z,7.50
2022-07-30T11:14:12.924Z,8.15
2022-07-30T11:16:40.211Z,7.50
2022-07-30T11:19:56.067Z,6.97
2022-07-30T11:22:36.734Z,7.70
2022-07-30T11:25:12.635Z,8.20
2022-07-30T11:27:50.342Z,9.55
2022-07-30T11:30:17.897Z,7.30
2022-07-30T11:32:54.101Z,6.43
2022-07-30T11:35:25.449Z,7.20
2022-07-30T11:38:00.893Z,8.02
2022-07-30T11:40:52.513Z,7.15
2022-07-30T11:43:34.766Z,6.53
2022-07-30T11:46:15.687Z,6.25
2022-07-30T11:48:59.353Z,7.13
2022-07-30T11:51:27.070Z,5.03
2022-07-30T11:54:04.878Z,5.95
2022-07-30T11:56:32.932Z,5.85
2022-07-30T11:59:05.980Z,5.55
2022-07-30T12:01:35.294Z,5.18
2022-07-30T12:04:06.894Z,4.90
2022-07-30T12:06:36.483Z,4.78
2022-07-30T12:09:03.956Z,4.85
2022-07-30T12:11:35.542Z,5.63
2022-07-30T12:14:04.741Z,5.35
2022-07-30T12:16:33.264Z,4.97
2022-07-30T12:19:06.000Z,5.05
2022-07-30T12:21:33.915Z,5.72
2022-07-30T12:24:07.671Z,5.25
2022-07-30T12:26:35.428Z,5.63
2022-07-30T12:29:07.361Z,5.60
2022-07-30T12:31:38.450Z,6.13
2022-07-30T12:34:24.892Z,6.00
2022-07-30T12:36:52.429Z,6.07
2022-07-30T12:39:26.949Z,5.22
2022-07-30T12:41:56.281Z,5.53
2022-07-30T12:44:42.014Z,5.15
2022-07-30T12:47:29.000Z,5.47
2022-07-30T12:50:01.631Z,5.68
2022-07-30T12:52:34.543Z,5.15
2022-07-30T12:55:09.378Z,4.95
2022-07-30T12:57:59.914Z,5.32
2022-07-30T13:00:44.938Z,4.47
2022-07-30T13:03:21.139Z,4.85
2022-07-30T13:05:51.383Z,4.78
2022-07-30T13:08:46.080Z,4.88
2022-07-30T13:11:13.796Z,4.93
2022-07-30T13:13:40.980Z,4.68
2022-07-30T13:16:08.463Z,4.82
2022-07-30T13:18:37.244Z,4.35
2022-07-30T13:21:08.211Z,4.45
2022-07-30T13:23:40.180Z,4.00
2022-07-30T13:26:09.155Z,4.03
2022-07-30T13:28:37.544Z,5.50
2022-07-30T13:31:04.742Z,3.80
2022-07-30T13:33:31.954Z,3.83
2022-07-30T13:35:59.302Z,3.83
2022-07-30T13:38:27.859Z,3.75
2022-07-30T13:40:59.172Z,3.95
2022-07-30T13:43:29.823Z,4.03
2022-07-30T13:46:04.164Z,3.38
2022-07-30T13:48:33.226Z,3.63
2022-07-30T13:51:01.619Z,3.85
2022-07-30T13:53:29.619Z,4.20
2022-07-30T13:55:56.983Z,4.20
2022-07-30T13:58:24.124Z,4.53
2022-07-30T14:00:51.639Z,3.67
2022-07-30T14:03:18.782Z,4.75
2022-07-30T14:05:45.876Z,4.40
2022-07-30T14:08:13.098Z,3.85
2022-07-30T14:10:40.879Z,3.55
2022-07-30T14:13:10.364Z,3.03
2022-07-30T14:15:41.572Z,3.40
2022-07-30T14:18:08.630Z,2.75
2022-07-30T14:20:35.761Z,2.90
2022-07-30T14:23:02.988Z,2.97
2022-07-30T14:25:31.037Z,3.30
2022-07-30T14:27:58.212Z,3.38
2022-07-30T14:30:26.195Z,3.45
2022-07-30T14:32:59.280Z,3.35
2022-07-30T14:35:27.654Z,3.00
2022-07-30T14:37:54.812Z,2.65
2022-07-30T14:40:22.095Z,2.80
2022-07-30T14:42:49.260Z,2.60
2022-07-30T14:45:16.354Z,3.00
2022-07-30T14:47:43.609Z,2.30
2022-07-30T14:50:10.799Z,2.53
2022-07-30T14:52:38.881Z,2.30
2022-07-30T14:55:09.847Z,2.00
2022-07-30T14:57:37.180Z,1.98
2022-07-30T15:00:08.519Z,1.42
2022-07-30T15:02:38.279Z,1.83
2022-07-30T15:05:06.164Z,1.88
2022-07-30T15:07:34.631Z,1.92
2022-07-30T15:10:03.223Z,2.45
2022-07-30T15:12:30.589Z,2.60
2022-07-30T15:14:57.773Z,2.92
2022-07-30T15:17:24.870Z,3.25
2022-07-30T15:19:52.120Z,2.88
2022-07-30T15:22:20.299Z,3.03
2022-07-30T15:24:48.229Z,2.92
2022-07-30T15:27:15.390Z,2.70
2022-07-30T15:29:42.892Z,2.55
2022-07-30T15:32:09.987Z,2.60
2022-07-30T15:34:37.138Z,2.35
2022-07-30T15:37:06.304Z,2.33
2022-07-30T15:39:34.239Z,2.45
2022-07-30T15:42:03.113Z,2.25
2022-07-30T15:44:30.618Z,2.33
2022-07-30T15:46:58.579Z,2.20
2022-07-30T15:49:26.061Z,2.30
2022-07-30T15:51:53.204Z,2.50
2022-07-30T15:54:25.258Z,2.28
2022-07-30T15:56:54.599Z,2.30
2022-07-30T15:59:29.141Z,3.17
2022-07-30T16:01:56.352Z,4.90
2022-07-30T16:04:31.568Z,3.55
2022-07-30T16:07:04.427Z,2.95
2022-07-30T16:09:31.849Z,3.00
2022-07-30T16:11:59.327Z,3.10
2022-07-30T16:14:27.279Z,3.45
2022-07-30T16:16:54.738Z,3.00
2022-07-30T16:19:21.947Z,3.83
2022-07-30T16:21:54.150Z,4.38
2022-07-30T16:24:21.791Z,4.60
2022-07-30T16:26:49.063Z,4.65
2022-07-30T16:29:16.385Z,3.85
2022-07-30T16:31:43.920Z,3.30
2022-07-30T16:34:11.074Z,3.13
2022-07-30T16:36:38.365Z,3.00
2022-07-30T16:39:06.409Z,3.40
2022-07-30T16:41:33.725Z,2.92
2022-07-30T16:44:00.877Z,1.98
2022-07-30T16:46:28.208Z,1.70
2022-07-30T16:48:55.484Z,1.30
2022-07-30T16:51:22.597Z,1.50
2022-07-30T16:53:49.808Z,1.80
2022-07-30T16:56:17.722Z,1.65
2022-07-30T16:58:44.857Z,1.58
2022-07-30T17:01:12.104Z,1.60
2022-07-30T17:03:39.387Z,1.55
2022-07-30T17:06:06.693Z,1.58
2022-07-30T17:08:33.863Z,1.92
2022-07-30T17:11:01.546Z,2.15
2022-07-30T17:13:28.771Z,2.30
2022-07-30T17:15:56.063Z,2.22
2022-07-30T17:18:23.205Z,2.78
2022-07-30T17:20:50.366Z,2.75
2022-07-30T17:23:17.482Z,2.40
2022-07-30T17:25:44.939Z,2.63
2022-07-30T17:28:12.050Z,2.47
2022-07-30T17:30:39.244Z,2.55
2022-07-30T17:33:06.514Z,2.47
2022-07-30T17:35:34.260Z,2.47
2022-07-30T17:38:01.604Z,2.15
2022-07-30T17:40:31.575Z,2.58
2022-07-30T17:43:04.653Z,2.60
2022-07-30T17:45:36.833Z,2.53
2022-07-30T17:48:05.403Z,2.70
2022-07-30T17:50:34.447Z,2.65
2022-07-30T17:53:04.089Z,2.88
2022-07-30T17:55:35.090Z,2.60
2022-07-30T17:58:05.821Z,2.83
2022-07-30T18:00:35.352Z,3.10
2022-07-30T18:03:03.663Z,2.80
2022-07-30T18:05:30.819Z,3.30
2022-07-30T18:07:57.972Z,2.97
2022-07-30T18:10:25.128Z,3.15
2022-07-30T18:12:52.315Z,3.42
2022-07-30T18:15:19.511Z,3.40
2022-07-30T18:17:46.968Z,3.30
2022-07-30T18:20:15.197Z,3.10
2022-07-30T18:22:42.819Z,3.28
2022-07-30T18:25:18.584Z,3.60
2022-07-30T18:27:47.578Z,3.17
2022-07-30T18:30:15.062Z,3.55
2022-07-30T18:32:42.786Z,3.22
2022-07-30T18:35:14.067Z,3.17
2022-07-30T18:37:42.799Z,3.60
2022-07-30T18:40:12.890Z,3.95
2022-07-30T18:42:40.455Z,3.47
2022-07-30T18:45:08.952Z,4.30
2022-07-30T18:47:35.997Z,3.65
2022-07-30T18:50:03.310Z,3.28
2022-07-30T18:52:31.072Z,3.50
2022-07-30T18:54:59.911Z,3.75
2022-07-30T18:57:27.255Z,3.08
2022-07-30T18:59:54.395Z,3.20
2022-07-30T19:02:25.437Z,2.83
2022-07-30T19:04:53.605Z,3.08
2022-07-30T19:07:21.488Z,3.25
2022-07-30T19:09:48.657Z,3.15
2022-07-30T19:12:15.996Z,3.28
2022-07-30T19:14:44.583Z,3.25
2022-07-30T19:17:14.085Z,3.10
2022-07-30T19:19:42.599Z,3.03
2022-07-30T19:22:09.848Z,3.22
2022-07-30T19:24:37.302Z,2.80
2022-07-30T19:27:05.515Z,3.25
2022-07-30T19:29:32.869Z,3.13
2022-07-30T19:32:00.201Z,2.97
2022-07-30T19:34:27.552Z,3.03
2022-07-30T19:36:54.672Z,2.92
2022-07-30T19:39:22.170Z,2.75
2022-07-30T19:41:50.796Z,3.25
2022-07-30T19:44:18.998Z,2.63
2022-07-30T19:46:48.767Z,2.72
2022-07-30T19:49:19.825Z,2.97
2022-07-30T19:54:36.705Z,2.75
2022-07-30T19:57:04.829Z,2.80
2022-07-30T19:59:55.819Z,2.67
2022-07-30T20:02:19.396Z,3.00
2022-07-30T20:04:49.806Z,3.25
2022-07-30T20:07:17.369Z,2.78
2022-07-30T20:09:45.023Z,2.92
2022-07-30T20:12:15.718Z,3.35
2022-07-30T20:14:44.290Z,3.10
2022-07-30T20:17:11.875Z,3.20
2022-07-30T20:19:39.339Z,3.22
2022-07-30T20:22:16.036Z,2.78
2022-07-30T20:24:44.923Z,2.97
2022-07-30T20:27:36.220Z,2.92
2022-07-30T20:29:59.448Z,3.55
2022-07-30T20:32:26.739Z,2.83
2022-07-30T20:34:54.104Z,3.15
2022-07-30T20:37:22.555Z,3.15
2022-07-30T20:39:50.452Z,2.65
2022-07-30T20:42:18.582Z,3.00
2022-07-30T20:44:49.415Z,2.90
2022-07-30T20:47:34.451Z,3.00
2022-07-30T20:50:09.512Z,3.63
2022-07-30T20:52:40.945Z,2.65
2022-07-30T20:55:19.188Z,2.63
2022-07-30T20:58:00.292Z,2.70
2022-07-30T21:00:37.137Z,2.75
2022-07-30T21:03:05.601Z,2.55
2022-07-30T21:05:32.821Z,2.88
2022-07-30T21:08:00.708Z,2.75
2022-07-30T21:10:27.973Z,2.95
2022-07-30T21:12:58.797Z,2.78
2022-07-30T21:15:32.904Z,3.53
2022-07-30T21:18:01.681Z,2.75
2022-07-30T21:20:30.838Z,2.60
2022-07-30T21:23:11.447Z,3.00
2022-07-30T21:26:00.631Z,3.35
2022-07-30T21:28:29.297Z,3.40
2022-07-30T21:30:57.112Z,3.55
2022-07-30T21:36:12.003Z,4.28
2022-07-30T21:38:42.476Z,3.15
2022-07-30T21:41:14.416Z,3.08
2022-07-30T21:43:43.986Z,3.03
2022-07-30T21:46:12.126Z,3.42
2022-07-30T21:48:39.981Z,3.00
2022-07-30T21:51:08.650Z,3.55
2022-07-30T21:56:24.183Z,3.38
2022-07-30T21:58:52.284Z,3.28
2022-07-30T22:01:22.614Z,3.60
2022-07-30T22:04:04.729Z,3.47
2022-07-30T22:06:40.213Z,3.08
2022-07-30T22:09:26.315Z,3.25
2022-07-30T22:12:02.375Z,3.42
2022-07-30T22:14:34.049Z,3.70
2022-07-30T22:17:04.441Z,3.47
2022-07-30T22:19:31.996Z,3.58
2022-07-30T22:24:46.259Z,3.28
2022-07-30T22:30:01.203Z,4.13
2022-07-30T22:32:28.328Z,3.55
2022-07-30T22:34:55.485Z,3.97
2022-07-30T22:37:31.383Z,3.85
2022-07-30T22:42:28.946Z,4.30
2022-07-30T22:44:57.523Z,4.00
2022-07-30T22:47:50.850Z,3.85
2022-07-30T22:50:12.879Z,3.80
2022-07-30T22:52:44.145Z,3.50
2022-07-30T22:55:26.528Z,3.97
2022-07-30T22:57:54.426Z,4.13
2022-07-30T23:00:27.434Z,4.25
2022-07-30T23:02:56.841Z,4.28
2022-07-30T23:05:24.466Z,4.50
2022-07-30T23:07:51.920Z,4.18
2022-07-30T23:10:20.681Z,3.83
2022-07-30T23:12:17.000Z,2.50
2022-07-30T23:12:27.746Z,3.40
2022-07-30T23:12:31.607Z,4.20
2022-07-30T23:12:32.129Z,3.83
2022-07-30T23:12:32.307Z,3.55
2022-07-30T23:12:51.558Z,4.22
2022-07-30T23:15:19.977Z,3.63
2022-07-30T23:17:47.831Z,3.58
2022-07-30T23:20:18.439Z,3.72
2022-07-30T23:22:45.558Z,4.78
2022-07-30T23:25:13.693Z,4.30
2022-07-30T23:27:41.611Z,4.22
2022-07-30T23:30:11.475Z,4.35
2022-07-30T23:32:40.170Z,3.95
2022-07-30T23:35:09.017Z,3.80
2022-07-30T23:37:48.553Z,4.13
2022-07-30T23:40:18.569Z,4.13
2022-07-30T23:42:47.417Z,3.83
2022-07-30T23:45:14.813Z,4.05
2022-07-30T23:47:54.624Z,4.32
2022-07-30T23:50:31.122Z,3.83
2022-07-30T23:52:58.341Z,4.10
2022-07-30T23:55:27.131Z,4.28
2022-07-30T23:57:54.448Z,4.22
